sensor_id;sensor_type;location;lat;lon;timestamp;P1;durP1;ratioP1;P2;durP2;ratioP2
60880;SDS011;46729;43.010;24.320;2022-08-14T00:00:05;8.73;;;7.00;;
60880;SDS011;46729;43.010;24.320;2022-08-14T00:02:33;10.60;;;8.23;;
60880;SDS011;46729;43.010;24.320;2022-08-14T00:04:58;10.07;;;7.57;;
60880;SDS011;46729;43.010;24.320;2022-08-14T00:07:24;8.73;;;7.47;;
60880;SDS011;46729;43.010;24.320;2022-08-14T00:09:49;9.23;;;6.95;;
60880;SDS011;46729;43.010;24.320;2022-08-14T00:12:15;9.93;;;7.72;;
60880;SDS011;46729;43.010;24.320;2022-08-14T00:14:41;11.85;;;7.43;;
60880;SDS011;46729;43.010;24.320;2022-08-14T00:17:06;8.82;;;6.80;;
60880;SDS011;46729;43.010;24.320;2022-08-14T00:19:32;9.43;;;7.15;;
60880;SDS011;46729;43.010;24.320;2022-08-14T00:21:57;9.20;;;6.82;;
60880;SDS011;46729;43.010;24.320;2022-08-14T00:24:23;10.80;;;6.85;;
60880;SDS011;46729;43.010;24.320;2022-08-14T00:26:49;8.80;;;6.90;;
60880;SDS011;46729;43.010;24.320;2022-08-14T00:29:14;9.98;;;6.50;;
60880;SDS011;46729;43.010;24.320;2022-08-14T00:31:40;9.48;;;7.05;;
60880;SDS011;46729;43.010;24.320;2022-08-14T00:34:05;14.27;;;7.53;;
60880;SDS011;46729;43.010;24.320;2022-08-14T00:36:31;9.75;;;6.50;;
60880;SDS011;46729;43.010;24.320;2022-08-14T00:38:57;11.07;;;6.97;;
60880;SDS011;46729;43.010;24.320;2022-08-14T00:41:22;12.43;;;7.97;;
60880;SDS011;46729;43.010;24.320;2022-08-14T00:43:53;10.68;;;7.47;;
60880;SDS011;46729;43.010;24.320;2022-08-14T00:46:19;9.18;;;7.30;;
60880;SDS011;46729;43.010;24.320;2022-08-14T00:48:45;9.25;;;7.10;;
60880;SDS011;46729;43.010;24.320;2022-08-14T00:51:12;9.98;;;7.35;;
60880;SDS011;46729;43.010;24.320;2022-08-14T00:53:38;7.82;;;7.03;;
60880;SDS011;46729;43.010;24.320;2022-08-14T00:56:04;9.60;;;7.43;;
60880;SDS011;46729;43.010;24.320;2022-08-14T00:58:32;9.75;;;7.47;;
60880;SDS011;46729;43.010;24.320;2022-08-14T01:00:59;11.32;;;7.72;;
60880;SDS011;46729;43.010;24.320;2022-08-14T01:03:30;16.08;;;7.32;;
60880;SDS011;46729;43.010;24.320;2022-08-14T01:05:58;12.52;;;8.02;;
60880;SDS011;46729;43.010;24.320;2022-08-14T01:08:24;9.27;;;7.72;;
60880;SDS011;46729;43.010;24.320;2022-08-14T01:10:52;8.00;;;6.85;;
60880;SDS011;46729;43.010;24.320;2022-08-14T01:13:26;8.50;;;7.10;;
60880;SDS011;46729;43.010;24.320;2022-08-14T01:15:57;9.70;;;7.65;;
60880;SDS011;46729;43.010;24.320;2022-08-14T01:18:25;9.35;;;7.68;;
60880;SDS011;46729;43.010;24.320;2022-08-14T01:21:11;9.70;;;7.82;;
60880;SDS011;46729;43.010;24.320;2022-08-14T01:23:49;10.27;;;7.53;;
60880;SDS011;46729;43.010;24.320;2022-08-14T01:26:18;8.52;;;7.18;;
60880;SDS011;46729;43.010;24.320;2022-08-14T01:31:50;12.27;;;8.30;;
60880;SDS011;46729;43.010;24.320;2022-08-14T01:34:16;8.70;;;7.22;;
60880;SDS011;46729;43.010;24.320;2022-08-14T01:36:44;7.97;;;6.72;;
60880;SDS011;46729;43.010;24.320;2022-08-14T01:39:12;9.68;;;7.88;;
60880;SDS011;46729;43.010;24.320;2022-08-14T01:41:40;11.10;;;7.57;;
60880;SDS011;46729;43.010;24.320;2022-08-14T01:44:08;10.88;;;8.10;;
60880;SDS011;46729;43.010;24.320;2022-08-14T01:46:37;12.10;;;8.15;;
60880;SDS011;46729;43.010;24.320;2022-08-14T01:49:07;12.43;;;8.00;;
60880;SDS011;46729;43.010;24.320;2022-08-14T01:51:34;10.40;;;7.70;;
60880;SDS011;46729;43.010;24.320;2022-08-14T01:54:03;10.10;;;7.55;;
60880;SDS011;46729;43.010;24.320;2022-08-14T01:56:32;12.20;;;8.30;;
60880;SDS011;46729;43.010;24.320;2022-08-14T01:59:08;9.80;;;8.38;;
60880;SDS011;46729;43.010;24.320;2022-08-14T02:01:43;11.38;;;8.35;;
60880;SDS011;46729;43.010;24.320;2022-08-14T02:04:10;8.23;;;7.35;;
60880;SDS011;46729;43.010;24.320;2022-08-14T02:06:36;10.85;;;7.82;;
60880;SDS011;46729;43.010;24.320;2022-08-14T02:09:06;11.48;;;7.90;;
60880;SDS011;46729;43.010;24.320;2022-08-14T02:14:02;12.98;;;7.72;;
60880;SDS011;46729;43.010;24.320;2022-08-14T02:16:32;8.88;;;7.10;;
60880;SDS011;46729;43.010;24.320;2022-08-14T02:19:04;11.27;;;7.93;;
60880;SDS011;46729;43.010;24.320;2022-08-14T02:21:34;9.40;;;7.50;;
60880;SDS011;46729;43.010;24.320;2022-08-14T02:24:03;10.55;;;8.63;;
60880;SDS011;46729;43.010;24.320;2022-08-14T02:26:31;9.73;;;7.57;;
60880;SDS011;46729;43.010;24.320;2022-08-14T02:29:00;11.48;;;8.55;;
60880;SDS011;46729;43.010;24.320;2022-08-14T02:31:32;9.95;;;7.43;;
60880;SDS011;46729;43.010;24.320;2022-08-14T02:34:07;8.80;;;7.55;;
60880;SDS011;46729;43.010;24.320;2022-08-14T02:36:39;8.20;;;7.28;;
60880;SDS011;46729;43.010;24.320;2022-08-14T02:39:06;10.50;;;7.75;;
60880;SDS011;46729;43.010;24.320;2022-08-14T02:41:34;11.20;;;8.27;;
60880;SDS011;46729;43.010;24.320;2022-08-14T02:44:01;14.57;;;8.73;;
60880;SDS011;46729;43.010;24.320;2022-08-14T02:46:28;10.63;;;9.02;;
60880;SDS011;46729;43.010;24.320;2022-08-14T02:48:55;11.98;;;8.23;;
60880;SDS011;46729;43.010;24.320;2022-08-14T02:51:20;18.52;;;8.93;;
60880;SDS011;46729;43.010;24.320;2022-08-14T02:53:46;12.30;;;7.95;;
60880;SDS011;46729;43.010;24.320;2022-08-14T02:56:12;10.32;;;7.57;;
60880;SDS011;46729;43.010;24.320;2022-08-14T02:58:41;12.10;;;8.07;;
60880;SDS011;46729;43.010;24.320;2022-08-14T03:01:11;15.23;;;8.00;;
60880;SDS011;46729;43.010;24.320;2022-08-14T03:03:37;13.00;;;8.80;;
60880;SDS011;46729;43.010;24.320;2022-08-14T03:06:04;11.30;;;7.55;;
60880;SDS011;46729;43.010;24.320;2022-08-14T03:08:31;12.75;;;8.85;;
60880;SDS011;46729;43.010;24.320;2022-08-14T03:11:01;11.50;;;8.13;;
60880;SDS011;46729;43.010;24.320;2022-08-14T03:13:31;11.13;;;8.20;;
60880;SDS011;46729;43.010;24.320;2022-08-14T03:15:59;10.85;;;8.52;;
60880;SDS011;46729;43.010;24.320;2022-08-14T03:18:26;10.90;;;8.35;;
60880;SDS011;46729;43.010;24.320;2022-08-14T03:20:52;10.73;;;8.13;;
60880;SDS011;46729;43.010;24.320;2022-08-14T03:23:18;8.40;;;7.43;;
60880;SDS011;46729;43.010;24.320;2022-08-14T03:25:44;12.15;;;8.20;;
60880;SDS011;46729;43.010;24.320;2022-08-14T03:28:10;15.73;;;9.02;;
60880;SDS011;46729;43.010;24.320;2022-08-14T03:30:37;12.38;;;8.50;;
60880;SDS011;46729;43.010;24.320;2022-08-14T03:33:03;13.15;;;8.60;;
60880;SDS011;46729;43.010;24.320;2022-08-14T03:35:30;11.32;;;8.65;;
60880;SDS011;46729;43.010;24.320;2022-08-14T03:38:10;10.57;;;7.63;;
60880;SDS011;46729;43.010;24.320;2022-08-14T03:40:40;10.15;;;8.20;;
60880;SDS011;46729;43.010;24.320;2022-08-14T03:43:05;9.18;;;7.45;;
60880;SDS011;46729;43.010;24.320;2022-08-14T03:45:33;9.98;;;7.72;;
60880;SDS011;46729;43.010;24.320;2022-08-14T03:48:03;9.18;;;7.22;;
60880;SDS011;46729;43.010;24.320;2022-08-14T03:50:43;12.35;;;8.15;;
60880;SDS011;46729;43.010;24.320;2022-08-14T03:53:17;11.75;;;8.90;;
60880;SDS011;46729;43.010;24.320;2022-08-14T03:55:44;12.35;;;7.70;;
60880;SDS011;46729;43.010;24.320;2022-08-14T03:58:10;10.15;;;7.95;;
60880;SDS011;46729;43.010;24.320;2022-08-14T04:00:36;13.32;;;7.80;;
60880;SDS011;46729;43.010;24.320;2022-08-14T04:03:04;12.13;;;8.13;;
60880;SDS011;46729;43.010;24.320;2022-08-14T04:05:31;9.75;;;7.85;;
60880;SDS011;46729;43.010;24.320;2022-08-14T04:07:57;11.20;;;8.52;;
60880;SDS011;46729;43.010;24.320;2022-08-14T04:10:24;9.20;;;7.82;;
60880;SDS011;46729;43.010;24.320;2022-08-14T04:12:50;11.43;;;8.20;;
60880;SDS011;46729;43.010;24.320;2022-08-14T04:15:16;16.55;;;8.40;;
60880;SDS011;46729;43.010;24.320;2022-08-14T04:17:45;11.82;;;9.07;;
60880;SDS011;46729;43.010;24.320;2022-08-14T04:20:11;10.13;;;8.23;;
60880;SDS011;46729;43.010;24.320;2022-08-14T04:22:37;10.55;;;8.05;;
60880;SDS011;46729;43.010;24.320;2022-08-14T04:25:08;11.75;;;8.07;;
60880;SDS011;46729;43.010;24.320;2022-08-14T04:27:34;13.63;;;8.18;;
60880;SDS011;46729;43.010;24.320;2022-08-14T04:30:02;10.00;;;7.55;;
60880;SDS011;46729;43.010;24.320;2022-08-14T04:32:29;12.20;;;8.05;;
60880;SDS011;46729;43.010;24.320;2022-08-14T04:34:58;12.52;;;8.30;;
60880;SDS011;46729;43.010;24.320;2022-08-14T04:37:24;12.20;;;8.13;;
60880;SDS011;46729;43.010;24.320;2022-08-14T04:40:10;11.93;;;7.75;;
60880;SDS011;46729;43.010;24.320;2022-08-14T04:42:55;11.15;;;7.05;;
60880;SDS011;46729;43.010;24.320;2022-08-14T04:45:39;9.98;;;7.97;;
60880;SDS011;46729;43.010;24.320;2022-08-14T04:48:09;11.30;;;8.07;;
60880;SDS011;46729;43.010;24.320;2022-08-14T04:50:49;13.23;;;8.20;;
60880;SDS011;46729;43.010;24.320;2022-08-14T04:53:17;15.32;;;7.72;;
60880;SDS011;46729;43.010;24.320;2022-08-14T04:55:45;12.48;;;8.68;;
60880;SDS011;46729;43.010;24.320;2022-08-14T04:58:23;18.88;;;8.55;;
60880;SDS011;46729;43.010;24.320;2022-08-14T05:00:50;18.55;;;8.45;;
60880;SDS011;46729;43.010;24.320;2022-08-14T05:03:17;11.15;;;9.23;;
60880;SDS011;46729;43.010;24.320;2022-08-14T05:05:46;14.23;;;8.77;;
60880;SDS011;46729;43.010;24.320;2022-08-14T05:08:12;17.50;;;8.77;;
60880;SDS011;46729;43.010;24.320;2022-08-14T05:10:40;13.98;;;8.60;;
60880;SDS011;46729;43.010;24.320;2022-08-14T05:13:07;15.07;;;9.35;;
60880;SDS011;46729;43.010;24.320;2022-08-14T05:15:33;16.58;;;9.50;;
60880;SDS011;46729;43.010;24.320;2022-08-14T05:18:06;24.95;;;13.73;;
60880;SDS011;46729;43.010;24.320;2022-08-14T05:20:41;120.47;;;44.95;;
60880;SDS011;46729;43.010;24.320;2022-08-14T05:23:14;131.95;;;54.08;;
60880;SDS011;46729;43.010;24.320;2022-08-14T05:25:42;87.35;;;39.90;;
60880;SDS011;46729;43.010;24.320;2022-08-14T05:31:02;61.35;;;29.45;;
60880;SDS011;46729;43.010;24.320;2022-08-14T05:33:31;66.43;;;31.63;;
60880;SDS011;46729;43.010;24.320;2022-08-14T05:35:59;35.05;;;19.17;;
60880;SDS011;46729;43.010;24.320;2022-08-14T05:38:27;36.63;;;18.27;;
60880;SDS011;46729;43.010;24.320;2022-08-14T05:43:24;19.83;;;12.65;;
60880;SDS011;46729;43.010;24.320;2022-08-14T05:45:49;19.02;;;13.05;;
60880;SDS011;46729;43.010;24.320;2022-08-14T05:48:15;33.67;;;18.88;;
60880;SDS011;46729;43.010;24.320;2022-08-14T05:50:40;27.08;;;16.15;;
60880;SDS011;46729;43.010;24.320;2022-08-14T05:53:06;25.92;;;15.07;;
60880;SDS011;46729;43.010;24.320;2022-08-14T05:55:32;34.60;;;16.48;;
60880;SDS011;46729;43.010;24.320;2022-08-14T05:58:00;29.77;;;18.65;;
60880;SDS011;46729;43.010;24.320;2022-08-14T06:00:28;48.43;;;21.73;;
60880;SDS011;46729;43.010;24.320;2022-08-14T06:02:57;42.38;;;22.67;;
60880;SDS011;46729;43.010;24.320;2022-08-14T06:05:24;49.10;;;22.52;;
60880;SDS011;46729;43.010;24.320;2022-08-14T06:07:52;38.38;;;20.27;;
60880;SDS011;46729;43.010;24.320;2022-08-14T06:10:17;36.60;;;19.40;;
60880;SDS011;46729;43.010;24.320;2022-08-14T06:12:43;34.60;;;18.38;;
60880;SDS011;46729;43.010;24.320;2022-08-14T06:15:09;35.38;;;18.65;;
60880;SDS011;46729;43.010;24.320;2022-08-14T06:17:42;28.33;;;17.45;;
60880;SDS011;46729;43.010;24.320;2022-08-14T06:20:17;32.17;;;17.55;;
60880;SDS011;46729;43.010;24.320;2022-08-14T06:22:43;28.42;;;16.73;;
60880;SDS011;46729;43.010;24.320;2022-08-14T06:25:10;31.27;;;16.95;;
60880;SDS011;46729;43.010;24.320;2022-08-14T06:27:38;24.65;;;15.07;;
60880;SDS011;46729;43.010;24.320;2022-08-14T06:30:05;24.70;;;15.27;;
60880;SDS011;46729;43.010;24.320;2022-08-14T06:32:32;29.95;;;14.75;;
60880;SDS011;46729;43.010;24.320;2022-08-14T06:34:59;27.13;;;15.50;;
60880;SDS011;46729;43.010;24.320;2022-08-14T06:37:24;34.38;;;16.88;;
60880;SDS011;46729;43.010;24.320;2022-08-14T06:39:51;26.33;;;15.25;;
60880;SDS011;46729;43.010;24.320;2022-08-14T06:42:17;24.88;;;14.35;;
60880;SDS011;46729;43.010;24.320;2022-08-14T06:44:42;24.73;;;14.77;;
60880;SDS011;46729;43.010;24.320;2022-08-14T06:47:09;23.08;;;14.27;;
60880;SDS011;46729;43.010;24.320;2022-08-14T06:49:35;26.67;;;14.93;;
60880;SDS011;46729;43.010;24.320;2022-08-14T06:52:01;24.58;;;14.85;;
60880;SDS011;46729;43.010;24.320;2022-08-14T06:54:27;26.05;;;14.40;;
60880;SDS011;46729;43.010;24.320;2022-08-14T06:56:53;24.30;;;14.85;;
60880;SDS011;46729;43.010;24.320;2022-08-14T06:59:19;28.88;;;15.65;;
60880;SDS011;46729;43.010;24.320;2022-08-14T07:01:44;25.00;;;16.67;;
60880;SDS011;46729;43.010;24.320;2022-08-14T07:04:28;31.90;;;16.60;;
60880;SDS011;46729;43.010;24.320;2022-08-14T07:07:34;23.27;;;15.80;;
60880;SDS011;46729;43.010;24.320;2022-08-14T07:10:02;23.02;;;15.90;;
60880;SDS011;46729;43.010;24.320;2022-08-14T07:12:29;23.83;;;15.88;;
60880;SDS011;46729;43.010;24.320;2022-08-14T07:14:55;22.25;;;15.20;;
60880;SDS011;46729;43.010;24.320;2022-08-14T07:17:20;27.27;;;16.48;;
60880;SDS011;46729;43.010;24.320;2022-08-14T07:19:46;35.33;;;16.27;;
60880;SDS011;46729;43.010;24.320;2022-08-14T07:22:12;26.77;;;16.13;;
60880;SDS011;46729;43.010;24.320;2022-08-14T07:24:37;20.33;;;13.70;;
60880;SDS011;46729;43.010;24.320;2022-08-14T07:27:03;26.50;;;15.60;;
60880;SDS011;46729;43.010;24.320;2022-08-14T07:29:29;22.02;;;13.75;;
60880;SDS011;46729;43.010;24.320;2022-08-14T07:31:55;23.25;;;16.02;;
60880;SDS011;46729;43.010;24.320;2022-08-14T07:34:20;22.67;;;13.20;;
60880;SDS011;46729;43.010;24.320;2022-08-14T07:36:46;19.88;;;12.98;;
60880;SDS011;46729;43.010;24.320;2022-08-14T07:39:12;15.77;;;11.77;;
60880;SDS011;46729;43.010;24.320;2022-08-14T07:41:38;18.90;;;13.10;;
60880;SDS011;46729;43.010;24.320;2022-08-14T07:44:04;15.90;;;12.95;;
60880;SDS011;46729;43.010;24.320;2022-08-14T07:46:30;17.98;;;12.30;;
60880;SDS011;46729;43.010;24.320;2022-08-14T07:48:55;20.90;;;12.63;;
60880;SDS011;46729;43.010;24.320;2022-08-14T07:51:21;18.08;;;12.68;;
60880;SDS011;46729;43.010;24.320;2022-08-14T07:53:46;17.98;;;13.02;;
60880;SDS011;46729;43.010;24.320;2022-08-14T07:56:12;20.48;;;14.63;;
60880;SDS011;46729;43.010;24.320;2022-08-14T07:58:38;23.63;;;14.13;;
60880;SDS011;46729;43.010;24.320;2022-08-14T08:01:04;24.25;;;14.43;;
60880;SDS011;46729;43.010;24.320;2022-08-14T08:03:32;24.77;;;14.63;;
60880;SDS011;46729;43.010;24.320;2022-08-14T08:05:59;25.55;;;15.40;;
60880;SDS011;46729;43.010;24.320;2022-08-14T08:08:26;17.58;;;14.00;;
60880;SDS011;46729;43.010;24.320;2022-08-14T08:10:57;21.13;;;13.13;;
60880;SDS011;46729;43.010;24.320;2022-08-14T08:13:23;17.30;;;13.88;;
60880;SDS011;46729;43.010;24.320;2022-08-14T08:15:54;14.30;;;11.57;;
60880;SDS011;46729;43.010;24.320;2022-08-14T08:18:21;15.48;;;13.05;;
60880;SDS011;46729;43.010;24.320;2022-08-14T08:20:49;17.05;;;12.45;;
60880;SDS011;46729;43.010;24.320;2022-08-14T08:23:18;16.00;;;12.30;;
60880;SDS011;46729;43.010;24.320;2022-08-14T08:25:45;16.50;;;13.32;;
60880;SDS011;46729;43.010;24.320;2022-08-14T08:28:20;17.67;;;14.25;;
60880;SDS011;46729;43.010;24.320;2022-08-14T08:33:19;18.45;;;14.85;;
60880;SDS011;46729;43.010;24.320;2022-08-14T08:35:48;19.80;;;14.00;;
60880;SDS011;46729;43.010;24.320;2022-08-14T08:38:15;20.67;;;13.90;;
60880;SDS011;46729;43.010;24.320;2022-08-14T08:40:43;23.02;;;14.43;;
60880;SDS011;46729;43.010;24.320;2022-08-14T08:45:56;16.65;;;12.57;;
60880;SDS011;46729;43.010;24.320;2022-08-14T08:48:29;17.38;;;12.30;;
60880;SDS011;46729;43.010;24.320;2022-08-14T08:51:07;17.27;;;11.23;;
60880;SDS011;46729;43.010;24.320;2022-08-14T08:53:33;14.50;;;12.63;;
60880;SDS011;46729;43.010;24.320;2022-08-14T08:56:00;17.75;;;11.77;;
60880;SDS011;46729;43.010;24.320;2022-08-14T08:58:27;22.60;;;13.07;;
60880;SDS011;46729;43.010;24.320;2022-08-14T09:00:53;19.52;;;12.38;;
60880;SDS011;46729;43.010;24.320;2022-08-14T09:03:22;15.93;;;11.70;;
60880;SDS011;46729;43.010;24.320;2022-08-14T09:05:54;21.02;;;13.57;;
60880;SDS011;46729;43.010;24.320;2022-08-14T09:08:23;17.27;;;12.27;;
60880;SDS011;46729;43.010;24.320;2022-08-14T09:10:51;16.63;;;12.52;;
60880;SDS011;46729;43.010;24.320;2022-08-14T09:13:18;15.05;;;12.63;;
60880;SDS011;46729;43.010;24.320;2022-08-14T09:15:45;18.00;;;13.07;;
60880;SDS011;46729;43.010;24.320;2022-08-14T09:18:12;17.45;;;12.52;;
60880;SDS011;46729;43.010;24.320;2022-08-14T09:20:39;16.70;;;13.30;;
60880;SDS011;46729;43.010;24.320;2022-08-14T09:23:10;16.15;;;12.35;;
60880;SDS011;46729;43.010;24.320;2022-08-14T09:28:05;15.75;;;12.45;;
60880;SDS011;46729;43.010;24.320;2022-08-14T09:30:31;16.98;;;13.02;;
60880;SDS011;46729;43.010;24.320;2022-08-14T09:47:41;15.23;;;8.82;;
60880;SDS011;46729;43.010;24.320;2022-08-14T09:50:19;13.63;;;8.73;;
60880;SDS011;46729;43.010;24.320;2022-08-14T09:55:27;16.15;;;9.45;;
60880;SDS011;46729;43.010;24.320;2022-08-14T09:58:16;12.63;;;8.88;;
60880;SDS011;46729;43.010;24.320;2022-08-14T10:00:47;10.18;;;9.05;;
60880;SDS011;46729;43.010;24.320;2022-08-14T10:04:16;14.88;;;9.30;;
60880;SDS011;46729;43.010;24.320;2022-08-14T10:06:24;13.45;;;8.88;;
60880;SDS011;46729;43.010;24.320;2022-08-14T10:11:37;15.55;;;10.55;;
60880;SDS011;46729;43.010;24.320;2022-08-14T10:14:14;13.77;;;9.93;;
60880;SDS011;46729;43.010;24.320;2022-08-14T10:16:45;12.65;;;9.73;;
60880;SDS011;46729;43.010;24.320;2022-08-14T10:19:16;14.88;;;10.38;;
60880;SDS011;46729;43.010;24.320;2022-08-14T10:22:04;16.83;;;10.65;;
60880;SDS011;46729;43.010;24.320;2022-08-14T10:24:42;17.42;;;10.00;;
60880;SDS011;46729;43.010;24.320;2022-08-14T10:27:14;11.68;;;9.75;;
60880;SDS011;46729;43.010;24.320;2022-08-14T10:29:51;10.07;;;7.55;;
60880;SDS011;46729;43.010;24.320;2022-08-14T10:32:22;15.48;;;9.15;;
60880;SDS011;46729;43.010;24.320;2022-08-14T10:34:50;11.05;;;8.80;;
60880;SDS011;46729;43.010;24.320;2022-08-14T10:37:35;9.95;;;8.45;;
60880;SDS011;46729;43.010;24.320;2022-08-14T10:40:29;11.30;;;8.18;;
60880;SDS011;46729;43.010;24.320;2022-08-14T10:42:56;21.20;;;8.77;;
60880;SDS011;46729;43.010;24.320;2022-08-14T10:45:23;14.13;;;8.75;;
60880;SDS011;46729;43.010;24.320;2022-08-14T10:47:54;11.18;;;7.70;;
60880;SDS011;46729;43.010;24.320;2022-08-14T10:50:29;18.92;;;8.48;;
60880;SDS011;46729;43.010;24.320;2022-08-14T10:52:57;12.45;;;8.18;;
60880;SDS011;46729;43.010;24.320;2022-08-14T10:55:30;13.57;;;8.95;;
60880;SDS011;46729;43.010;24.320;2022-08-14T10:58:04;17.52;;;10.00;;
60880;SDS011;46729;43.010;24.320;2022-08-14T11:00:34;16.75;;;11.88;;
60880;SDS011;46729;43.010;24.320;2022-08-14T11:03:05;16.05;;;11.38;;
60880;SDS011;46729;43.010;24.320;2022-08-14T11:05:38;17.55;;;12.20;;
60880;SDS011;46729;43.010;24.320;2022-08-14T11:08:07;20.85;;;13.60;;
60880;SDS011;46729;43.010;24.320;2022-08-14T11:10:40;16.13;;;12.77;;
60880;SDS011;46729;43.010;24.320;2022-08-14T11:13:09;16.27;;;11.85;;
60880;SDS011;46729;43.010;24.320;2022-08-14T11:15:40;14.70;;;12.13;;
60880;SDS011;46729;43.010;24.320;2022-08-14T11:18:06;12.18;;;9.40;;
60880;SDS011;46729;43.010;24.320;2022-08-14T11:20:32;14.07;;;8.43;;
60880;SDS011;46729;43.010;24.320;2022-08-14T11:22:58;12.00;;;9.45;;
60880;SDS011;46729;43.010;24.320;2022-08-14T11:25:26;10.52;;;8.70;;
60880;SDS011;46729;43.010;24.320;2022-08-14T11:27:56;13.43;;;10.50;;
60880;SDS011;46729;43.010;24.320;2022-08-14T11:30:23;12.75;;;10.93;;
60880;SDS011;46729;43.010;24.320;2022-08-14T11:32:55;12.75;;;10.65;;
60880;SDS011;46729;43.010;24.320;2022-08-14T11:35:23;12.00;;;10.05;;
60880;SDS011;46729;43.010;24.320;2022-08-14T11:37:51;14.25;;;10.23;;
60880;SDS011;46729;43.010;24.320;2022-08-14T11:40:22;13.00;;;10.43;;
60880;SDS011;46729;43.010;24.320;2022-08-14T11:42:50;12.02;;;10.02;;
60880;SDS011;46729;43.010;24.320;2022-08-14T11:45:19;10.98;;;8.98;;
60880;SDS011;46729;43.010;24.320;2022-08-14T11:50:18;12.93;;;8.70;;
60880;SDS011;46729;43.010;24.320;2022-08-14T11:52:46;11.80;;;9.32;;
60880;SDS011;46729;43.010;24.320;2022-08-14T11:55:12;9.18;;;8.05;;
60880;SDS011;46729;43.010;24.320;2022-08-14T11:57:40;15.10;;;9.32;;
60880;SDS011;46729;43.010;24.320;2022-08-14T12:00:08;16.20;;;11.23;;
60880;SDS011;46729;43.010;24.320;2022-08-14T12:02:48;15.23;;;10.88;;
60880;SDS011;46729;43.010;24.320;2022-08-14T12:05:15;14.48;;;12.18;;
60880;SDS011;46729;43.010;24.320;2022-08-14T12:07:50;16.27;;;11.57;;
60880;SDS011;46729;43.010;24.320;2022-08-14T12:10:17;15.57;;;11.68;;
60880;SDS011;46729;43.010;24.320;2022-08-14T12:12:44;17.15;;;11.70;;
60880;SDS011;46729;43.010;24.320;2022-08-14T12:15:10;16.02;;;12.80;;
60880;SDS011;46729;43.010;24.320;2022-08-14T12:17:43;14.07;;;12.38;;
60880;SDS011;46729;43.010;24.320;2022-08-14T12:20:12;18.77;;;14.23;;
60880;SDS011;46729;43.010;24.320;2022-08-14T12:22:40;16.00;;;13.13;;
60880;SDS011;46729;43.010;24.320;2022-08-14T12:25:08;14.43;;;12.95;;
60880;SDS011;46729;43.010;24.320;2022-08-14T12:27:43;18.67;;;12.98;;
60880;SDS011;46729;43.010;24.320;2022-08-14T12:33:01;16.63;;;13.23;;
60880;SDS011;46729;43.010;24.320;2022-08-14T12:35:39;17.77;;;13.77;;
60880;SDS011;46729;43.010;24.320;2022-08-14T12:38:07;19.08;;;14.20;;
60880;SDS011;46729;43.010;24.320;2022-08-14T12:40:44;17.27;;;13.63;;
60880;SDS011;46729;43.010;24.320;2022-08-14T12:43:10;15.90;;;13.77;;
60880;SDS011;46729;43.010;24.320;2022-08-14T12:45:36;22.92;;;13.90;;
60880;SDS011;46729;43.010;24.320;2022-08-14T12:48:03;16.90;;;14.18;;
60880;SDS011;46729;43.010;24.320;2022-08-14T12:50:39;15.43;;;13.10;;
60880;SDS011;46729;43.010;24.320;2022-08-14T12:53:06;18.38;;;13.35;;
60880;SDS011;46729;43.010;24.320;2022-08-14T12:55:33;15.23;;;12.77;;
60880;SDS011;46729;43.010;24.320;2022-08-14T12:58:01;14.00;;;12.00;;
60880;SDS011;46729;43.010;24.320;2022-08-14T13:00:30;17.02;;;12.50;;
60880;SDS011;46729;43.010;24.320;2022-08-14T13:03:02;14.77;;;12.32;;
60880;SDS011;46729;43.010;24.320;2022-08-14T13:05:30;17.52;;;13.38;;
60880;SDS011;46729;43.010;24.320;2022-08-14T13:07:59;15.43;;;13.88;;
60880;SDS011;46729;43.010;24.320;2022-08-14T13:10:30;14.40;;;12.90;;
60880;SDS011;46729;43.010;24.320;2022-08-14T13:13:00;17.48;;;11.82;;
60880;SDS011;46729;43.010;24.320;2022-08-14T13:15:26;13.38;;;11.60;;
60880;SDS011;46729;43.010;24.320;2022-08-14T13:17:53;14.40;;;11.70;;
60880;SDS011;46729;43.010;24.320;2022-08-14T13:20:21;17.73;;;12.25;;
60880;SDS011;46729;43.010;24.320;2022-08-14T13:22:48;14.15;;;12.25;;
60880;SDS011;46729;43.010;24.320;2022-08-14T13:25:16;14.48;;;10.88;;
60880;SDS011;46729;43.010;24.320;2022-08-14T13:27:49;21.08;;;11.27;;
60880;SDS011;46729;43.010;24.320;2022-08-14T13:30:18;14.15;;;12.57;;
60880;SDS011;46729;43.010;24.320;2022-08-14T13:32:45;14.23;;;11.93;;
60880;SDS011;46729;43.010;24.320;2022-08-14T13:35:11;12.45;;;11.02;;
60880;SDS011;46729;43.010;24.320;2022-08-14T13:37:40;16.52;;;11.55;;
60880;SDS011;46729;43.010;24.320;2022-08-14T13:40:06;15.85;;;11.50;;
60880;SDS011;46729;43.010;24.320;2022-08-14T13:42:33;15.73;;;12.50;;
60880;SDS011;46729;43.010;24.320;2022-08-14T13:44:59;14.63;;;12.07;;
60880;SDS011;46729;43.010;24.320;2022-08-14T13:47:26;12.80;;;10.82;;
60880;SDS011;46729;43.010;24.320;2022-08-14T13:49:57;14.15;;;11.10;;
60880;SDS011;46729;43.010;24.320;2022-08-14T13:52:26;13.02;;;11.18;;
60880;SDS011;46729;43.010;24.320;2022-08-14T13:55:00;12.65;;;11.35;;
60880;SDS011;46729;43.010;24.320;2022-08-14T13:57:28;16.67;;;11.30;;
60880;SDS011;46729;43.010;24.320;2022-08-14T13:59:56;12.52;;;11.15;;
60880;SDS011;46729;43.010;24.320;2022-08-14T14:02:25;14.63;;;12.27;;
60880;SDS011;46729;43.010;24.320;2022-08-14T14:04:54;19.98;;;12.30;;
60880;SDS011;46729;43.010;24.320;2022-08-14T14:07:24;13.25;;;11.52;;
60880;SDS011;46729;43.010;24.320;2022-08-14T14:09:52;14.63;;;11.93;;
60880;SDS011;46729;43.010;24.320;2022-08-14T14:12:21;14.38;;;10.95;;
60880;SDS011;46729;43.010;24.320;2022-08-14T14:14:48;14.90;;;11.20;;
60880;SDS011;46729;43.010;24.320;2022-08-14T14:17:16;12.45;;;9.98;;
60880;SDS011;46729;43.010;24.320;2022-08-14T14:19:48;13.15;;;11.30;;
60880;SDS011;46729;43.010;24.320;2022-08-14T14:22:15;12.00;;;10.48;;
60880;SDS011;46729;43.010;24.320;2022-08-14T14:24:41;13.23;;;11.25;;
60880;SDS011;46729;43.010;24.320;2022-08-14T14:27:09;12.85;;;11.02;;
60880;SDS011;46729;43.010;24.320;2022-08-14T14:29:36;14.75;;;11.75;;
60880;SDS011;46729;43.010;24.320;2022-08-14T14:32:10;14.02;;;10.68;;
60880;SDS011;46729;43.010;24.320;2022-08-14T14:34:36;13.40;;;10.43;;
60880;SDS011;46729;43.010;24.320;2022-08-14T14:37:03;14.20;;;10.85;;
60880;SDS011;46729;43.010;24.320;2022-08-14T14:39:30;13.75;;;11.52;;
60880;SDS011;46729;43.010;24.320;2022-08-14T14:41:57;12.75;;;11.23;;
60880;SDS011;46729;43.010;24.320;2022-08-14T14:44:24;14.07;;;11.48;;
60880;SDS011;46729;43.010;24.320;2022-08-14T14:46:56;14.30;;;10.98;;
60880;SDS011;46729;43.010;24.320;2022-08-14T14:49:23;14.70;;;11.50;;
60880;SDS011;46729;43.010;24.320;2022-08-14T14:51:50;16.48;;;10.73;;
60880;SDS011;46729;43.010;24.320;2022-08-14T14:54:17;13.27;;;10.13;;
60880;SDS011;46729;43.010;24.320;2022-08-14T14:56:46;12.27;;;10.15;;
60880;SDS011;46729;43.010;24.320;2022-08-14T14:59:12;12.35;;;10.10;;
60880;SDS011;46729;43.010;24.320;2022-08-14T15:01:39;10.32;;;9.18;;
60880;SDS011;46729;43.010;24.320;2022-08-14T15:04:11;12.20;;;10.43;;
60880;SDS011;46729;43.010;24.320;2022-08-14T15:06:37;14.95;;;9.57;;
60880;SDS011;46729;43.010;24.320;2022-08-14T15:09:03;12.45;;;9.43;;